Time;durP1;ratioP1;P1;durP2;ratioP2;P2;SDS_P1;SDS_P2;PMS_P1;PMS_P2;Temp;Humidity;BMP_temperature;BMP_pressure;BME280_temperature;BME280_humidity;BME280_pressure;Samples;Min_cycle;Max_cycle;Signal;HPM_P1;HPM_P2
2023/12/22 00:00:13;;;;;;;71.13;12.45;;;;;;;;;;6271439;22;20024;-88
2023/12/22 00:02:56;;;;;;;61.50;13.73;;;;;;;;;;6271574;22;20019;-87
2023/12/22 00:05:46;;;;;;;63.45;13.63;;;;;;;;;;6272108;22;20524;-88
2023/12/22 00:08:30;;;;;;;55.70;12.60;;;;;;;;;;6271025;22;20456;-89
2023/12/22 00:11:14;;;;;;;55.03;12.43;;;;;;;;;;6271474;22;20020;-88
2023/12/22 00:13:59;;;;;;;65.50;12.45;;;;;;;;;;6270539;22;20017;-88
2023/12/22 00:16:46;;;;;;;50.90;10.90;;;;;;;;;;6271636;22;20020;-88
2023/12/22 00:19:30;;;;;;;54.58;12.65;;;;;;;;;;6272038;22;20048;-88
2023/12/22 00:22:14;;;;;;;53.00;10.55;;;;;;;;;;6271313;22;20344;-88
2023/12/22 00:24:57;;;;;;;50.97;11.45;;;;;;;;;;6269211;22;20024;-87
2023/12/22 00:27:41;;;;;;;51.35;11.82;;;;;;;;;;6270463;22;20071;-88
2023/12/22 00:30:25;;;;;;;52.78;12.82;;;;;;;;;;6269786;22;20020;-89
2023/12/22 00:33:09;;;;;;;49.95;12.77;;;;;;;;;;6269671;22;20066;-88
2023/12/22 00:35:53;;;;;;;52.00;12.30;;;;;;;;;;6270604;22;20043;-88
2023/12/22 00:38:37;;;;;;;46.88;11.88;;;;;;;;;;6270199;22;20080;-88
2023/12/22 00:41:21;;;;;;;51.55;11.80;;;;;;;;;;6270571;22;20028;-87
2023/12/22 00:44:05;;;;;;;44.67;10.95;;;;;;;;;;6270511;22;20024;-87
2023/12/22 00:46:49;;;;;;;50.22;10.43;;;;;;;;;;6270023;22;20335;-88
2023/12/22 00:49:33;;;;;;;40.83;11.85;;;;;;;;;;6270847;22;20020;-86
2023/12/22 00:52:17;;;;;;;45.25;10.13;;;;;;;;;;6271217;22;20019;-90
2023/12/22 00:55:01;;;;;;;45.05;9.70;;;;;;;;;;6270503;22;20071;-86
2023/12/22 00:57:48;;;;;;;46.90;10.68;;;;;;;;;;6270984;22;20020;-86
2023/12/22 01:00:32;;;;;;;44.40;10.60;;;;;;;;;;6270495;22;20023;-87
2023/12/22 01:03:16;;;;;;;45.38;10.20;;;;;;;;;;6269968;22;20024;-88
2023/12/22 01:06:00;;;;;;;30.92;9.75;;;;;;;;;;6268309;22;20024;-85
2023/12/22 01:12:24;;;;;;;31.38;8.52;;;;;;;;;;6181981;23;20077;-89
2023/12/22 01:15:08;;;;;;;35.28;8.40;;;;;;;;;;6269370;22;20090;-86
2023/12/22 01:17:52;;;;;;;38.80;8.70;;;;;;;;;;6269053;22;20016;-85
2023/12/22 01:20:36;;;;;;;31.25;7.68;;;;;;;;;;6270027;22;20470;-86
2023/12/22 01:26:48;;;;;;;21.48;6.80;;;;;;;;;;6181990;23;20043;-88
2023/12/22 01:33:00;;;;;;;19.00;6.47;;;;;;;;;;6181534;23;20331;-86
2023/12/22 01:35:44;;;;;;;21.55;6.47;;;;;;;;;;6180963;23;20025;-86
2023/12/22 01:38:28;;;;;;;20.95;6.40;;;;;;;;;;6181369;23;20209;-87
2023/12/22 01:41:13;;;;;;;27.65;6.60;;;;;;;;;;6268884;22;20020;-86
2023/12/22 01:47:37;;;;;;;25.63;7.10;;;;;;;;;;6181834;23;20107;-88
2023/12/22 01:50:21;;;;;;;20.35;5.72;;;;;;;;;;6181532;23;20020;-87
2023/12/22 01:53:06;;;;;;;9.48;4.90;;;;;;;;;;6267853;22;20051;-85
2023/12/22 01:55:51;;;;;;;11.15;5.25;;;;;;;;;;6268159;22;20021;-86
2023/12/22 01:58:36;;;;;;;13.45;4.75;;;;;;;;;;6269814;22;20043;-89
2023/12/22 02:01:20;;;;;;;11.80;3.85;;;;;;;;;;6181446;23;20070;-86
2023/12/22 02:04:05;;;;;;;15.65;4.18;;;;;;;;;;6181645;23;20343;-86
2023/12/22 02:06:51;;;;;;;10.68;4.03;;;;;;;;;;6267908;22;20393;-86
2023/12/22 02:09:35;;;;;;;6.45;3.50;;;;;;;;;;6269790;22;20020;-86
2023/12/22 02:12:19;;;;;;;7.35;3.35;;;;;;;;;;6268698;22;20347;-87
2023/12/22 02:15:05;;;;;;;6.45;3.30;;;;;;;;;;6268736;22;20470;-87
2023/12/22 02:17:59;;;;;;;6.80;3.10;;;;;;;;;;6268879;22;20016;-89
2023/12/22 02:20:44;;;;;;;8.93;3.17;;;;;;;;;;6181531;23;20024;-88
2023/12/22 02:23:28;;;;;;;7.53;3.05;;;;;;;;;;6269776;22;20347;-88
2023/12/22 02:26:19;;;;;;;5.70;3.13;;;;;;;;;;6268773;22;20024;-87
2023/12/22 02:29:03;;;;;;;5.43;2.80;;;;;;;;;;6268859;22;20066;-85
2023/12/22 02:31:49;;;;;;;4.20;3.00;;;;;;;;;;6181587;23;20047;-86
2023/12/22 02:34:35;;;;;;;7.07;2.83;;;;;;;;;;6267651;22;20016;-88
2023/12/22 02:37:20;;;;;;;4.70;3.00;;;;;;;;;;6270010;22;20340;-87
2023/12/22 02:40:04;;;;;;;4.60;3.25;;;;;;;;;;6268355;22;20055;-87
2023/12/22 02:42:48;;;;;;;6.45;3.20;;;;;;;;;;6268301;22;20447;-86
2023/12/22 02:45:34;;;;;;;6.70;3.42;;;;;;;;;;6268552;22;20062;-88
2023/12/22 02:48:18;;;;;;;8.98;4.05;;;;;;;;;;6268483;22;20041;-86
2023/12/22 02:51:03;;;;;;;5.50;2.88;;;;;;;;;;6268657;22;20024;-86
2023/12/22 02:53:46;;;;;;;4.40;2.60;;;;;;;;;;6268403;22;20059;-88
2023/12/22 02:56:30;;;;;;;3.90;2.78;;;;;;;;;;6181175;23;20020;-85
2023/12/22 02:59:14;;;;;;;4.55;2.88;;;;;;;;;;6268913;22;20020;-86
2023/12/22 03:01:58;;;;;;;4.22;2.65;;;;;;;;;;6181277;23;20023;-85
2023/12/22 03:04:42;;;;;;;3.55;2.53;;;;;;;;;;6269697;22;20024;-84
2023/12/22 03:07:26;;;;;;;3.67;2.38;;;;;;;;;;6269442;22;20305;-85
2023/12/22 03:10:10;;;;;;;3.35;2.60;;;;;;;;;;6268695;22;20093;-85
2023/12/22 03:12:54;;;;;;;3.40;2.30;;;;;;;;;;6267491;22;20016;-86
2023/12/22 03:15:38;;;;;;;6.88;2.50;;;;;;;;;;6181158;23;20062;-86
2023/12/22 03:18:22;;;;;;;2.30;2.20;;;;;;;;;;6269285;22;20017;-87
2023/12/22 03:21:05;;;;;;;5.82;3.30;;;;;;;;;;6269076;22;20021;-89
2023/12/22 03:23:49;;;;;;;4.00;2.30;;;;;;;;;;6267945;22;20028;-87
2023/12/22 03:26:33;;;;;;;2.17;2.00;;;;;;;;;;6180938;23;20096;-87
2023/12/22 03:29:18;;;;;;;2.30;1.80;;;;;;;;;;6267879;22;20346;-88
2023/12/22 03:32:02;;;;;;;2.75;1.90;;;;;;;;;;6269390;22;20496;-85
2023/12/22 03:34:46;;;;;;;3.38;1.80;;;;;;;;;;6268478;22;20497;-85
2023/12/22 03:37:30;;;;;;;1.73;1.67;;;;;;;;;;6269433;22;20108;-89
2023/12/22 03:40:14;;;;;;;1.90;1.80;;;;;;;;;;6268353;22;20044;-87
2023/12/22 03:42:58;;;;;;;1.90;1.80;;;;;;;;;;6267986;22;20020;-87
2023/12/22 03:45:41;;;;;;;1.95;1.85;;;;;;;;;;6268499;22;20024;-86
2023/12/22 03:48:25;;;;;;;1.80;1.70;;;;;;;;;;6268105;22;20146;-86
2023/12/22 03:51:11;;;;;;;1.92;1.80;;;;;;;;;;6268205;22;20094;-86
2023/12/22 03:53:55;;;;;;;1.90;1.80;;;;;;;;;;6268238;22;20070;-86
2023/12/22 03:56:40;;;;;;;1.70;1.60;;;;;;;;;;6268194;22;20016;-88
2023/12/22 03:59:23;;;;;;;1.75;1.67;;;;;;;;;;6269616;22;20507;-86
2023/12/22 04:02:07;;;;;;;1.60;1.60;;;;;;;;;;6182194;23;20470;-86
2023/12/22 04:04:51;;;;;;;1.70;1.60;;;;;;;;;;6269902;22;20020;-88
2023/12/22 04:07:35;;;;;;;1.80;1.70;;;;;;;;;;6269997;22;20070;-88
2023/12/22 04:10:19;;;;;;;2.05;1.70;;;;;;;;;;6269699;22;20066;-85
2023/12/22 04:13:03;;;;;;;1.90;1.80;;;;;;;;;;6270008;22;20097;-87
2023/12/22 04:15:47;;;;;;;4.47;2.63;;;;;;;;;;6269925;22;20016;-85
2023/12/22 04:18:32;;;;;;;10.13;2.30;;;;;;;;;;6181803;23;20016;-87
2023/12/22 04:21:16;;;;;;;7.78;2.55;;;;;;;;;;6269936;22;20028;-85
2023/12/22 04:23:59;;;;;;;3.17;2.33;;;;;;;;;;6270293;22;20024;-86
2023/12/22 04:26:43;;;;;;;4.53;2.28;;;;;;;;;;6269749;22;20036;-89
2023/12/22 04:29:27;;;;;;;4.43;2.17;;;;;;;;;;6269454;22;20386;-86
2023/12/22 04:32:11;;;;;;;4.03;2.67;;;;;;;;;;6269898;22;20020;-88
2023/12/22 04:34:58;;;;;;;3.88;2.40;;;;;;;;;;6269660;22;20024;-87
2023/12/22 04:37:42;;;;;;;3.80;2.22;;;;;;;;;;6181898;23;20020;-87
2023/12/22 04:40:28;;;;;;;3.30;2.45;;;;;;;;;;6270217;22;20532;-86
2023/12/22 04:43:12;;;;;;;5.85;2.45;;;;;;;;;;6270848;22;20390;-87
2023/12/22 04:45:56;;;;;;;4.15;2.30;;;;;;;;;;6270783;22;20343;-88
2023/12/22 04:48:40;;;;;;;5.57;2.95;;;;;;;;;;6269447;22;20019;-88
2023/12/22 04:51:23;;;;;;;6.97;2.63;;;;;;;;;;6269789;22;20098;-88
2023/12/22 04:54:07;;;;;;;6.97;2.40;;;;;;;;;;6269486;22;20016;-87
2023/12/22 04:56:51;;;;;;;8.02;2.50;;;;;;;;;;6269105;22;20032;-88
2023/12/22 04:59:35;;;;;;;6.25;2.33;;;;;;;;;;6269426;22;20040;-88
2023/12/22 05:02:19;;;;;;;5.65;2.28;;;;;;;;;;6268916;22;20023;-88
2023/12/22 05:05:03;;;;;;;9.45;2.67;;;;;;;;;;6270640;22;20078;-85
2023/12/22 05:07:47;;;;;;;4.70;2.20;;;;;;;;;;6269519;22;20055;-87
2023/12/22 05:10:31;;;;;;;7.57;2.38;;;;;;;;;;6269225;22;20082;-88
2023/12/22 05:13:15;;;;;;;4.65;2.30;;;;;;;;;;6269444;22;20019;-85
2023/12/22 05:15:59;;;;;;;3.85;2.13;;;;;;;;;;6269213;22;20075;-87
2023/12/22 05:18:43;;;;;;;5.25;2.00;;;;;;;;;;6269280;22;20084;-88
2023/12/22 05:21:30;;;;;;;2.15;1.83;;;;;;;;;;6270217;22;20143;-88
2023/12/22 05:24:14;;;;;;;1.90;1.70;;;;;;;;;;6269403;22;20024;-88
2023/12/22 05:26:58;;;;;;;2.92;1.73;;;;;;;;;;6181567;23;20020;-85
2023/12/22 05:29:42;;;;;;;2.13;1.60;;;;;;;;;;6269284;22;20020;-88
2023/12/22 05:32:26;;;;;;;6.68;2.08;;;;;;;;;;6269311;22;20100;-87
2023/12/22 05:35:10;;;;;;;6.00;2.05;;;;;;;;;;6269382;22;20016;-88
2023/12/22 05:37:54;;;;;;;6.22;2.08;;;;;;;;;;6270061;22;20059;-86
2023/12/22 05:40:38;;;;;;;6.00;2.25;;;;;;;;;;6269267;22;20028;-85
2023/12/22 05:43:22;;;;;;;4.78;2.17;;;;;;;;;;6269644;22;20019;-86
2023/12/22 05:46:05;;;;;;;5.78;2.47;;;;;;;;;;6269234;22;20056;-89
2023/12/22 05:48:49;;;;;;;4.75;2.10;;;;;;;;;;6181524;23;20528;-86
2023/12/22 05:51:39;;;;;;;5.20;2.08;;;;;;;;;;6269321;22;20023;-85
2023/12/22 05:54:25;;;;;;;4.45;2.58;;;;;;;;;;6268080;22;20066;-85
2023/12/22 05:57:09;;;;;;;7.13;2.45;;;;;;;;;;6181352;23;20336;-85
2023/12/22 05:59:53;;;;;;;4.38;2.22;;;;;;;;;;6270198;22;20070;-88
2023/12/22 06:02:40;;;;;;;9.77;2.40;;;;;;;;;;6268927;22;20024;-89
2023/12/22 06:05:24;;;;;;;8.43;2.65;;;;;;;;;;6270018;22;20066;-89
2023/12/22 06:08:09;;;;;;;10.43;2.75;;;;;;;;;;6268884;22;20056;-86
2023/12/22 06:10:53;;;;;;;5.50;2.30;;;;;;;;;;6268899;22;20834;-86
2023/12/22 06:13:37;;;;;;;8.40;2.67;;;;;;;;;;6268570;22;20446;-85
2023/12/22 06:16:21;;;;;;;9.45;2.35;;;;;;;;;;6268412;22;20066;-86
2023/12/22 06:19:05;;;;;;;6.43;2.30;;;;;;;;;;6269380;22;20088;-88
2023/12/22 06:21:49;;;;;;;3.53;2.30;;;;;;;;;;6268816;22;20039;-87
2023/12/22 06:24:34;;;;;;;5.10;2.20;;;;;;;;;;6269814;22;20522;-88
2023/12/22 06:27:19;;;;;;;3.25;1.80;;;;;;;;;;6268918;22;20066;-87
2023/12/22 06:30:03;;;;;;;4.88;1.98;;;;;;;;;;6268208;22;20023;-85
2023/12/22 06:32:47;;;;;;;3.33;2.10;;;;;;;;;;6269429;22;20017;-87
2023/12/22 06:35:33;;;;;;;6.53;2.42;;;;;;;;;;6181389;23;20064;-87
2023/12/22 06:38:17;;;;;;;2.88;2.05;;;;;;;;;;6268715;22;20020;-87
2023/12/22 06:41:01;;;;;;;3.63;1.90;;;;;;;;;;6268482;22;20547;-89
2023/12/22 06:43:45;;;;;;;3.22;1.55;;;;;;;;;;6181427;23;20073;-86
2023/12/22 06:46:30;;;;;;;1.73;1.63;;;;;;;;;;6268848;22;20095;-90
2023/12/22 06:49:14;;;;;;;2.83;1.60;;;;;;;;;;6269609;22;20024;-89
2023/12/22 06:51:58;;;;;;;2.00;1.88;;;;;;;;;;6269160;22;20056;-89
2023/12/22 06:54:43;;;;;;;2.40;2.00;;;;;;;;;;6181821;23;20091;-89
2023/12/22 06:57:27;;;;;;;3.42;1.80;;;;;;;;;;6268779;22;20056;-89
2023/12/22 07:00:11;;;;;;;2.85;1.65;;;;;;;;;;6268622;22;20082;-87
2023/12/22 07:02:55;;;;;;;3.60;2.10;;;;;;;;;;6267454;22;20100;-86
2023/12/22 07:05:39;;;;;;;3.05;1.80;;;;;;;;;;6269264;22;20066;-88
2023/12/22 07:08:23;;;;;;;3.10;1.83;;;;;;;;;;6269304;22;20050;-87
2023/12/22 07:11:07;;;;;;;3.63;1.70;;;;;;;;;;6181068;23;20040;-88
2023/12/22 07:13:51;;;;;;;3.90;1.90;;;;;;;;;;6269045;22;20035;-86
2023/12/22 07:16:35;;;;;;;1.92;1.60;;;;;;;;;;6268579;22;20469;-86
2023/12/22 07:19:19;;;;;;;3.40;1.50;;;;;;;;;;6267534;22;20142;-86
2023/12/22 07:22:04;;;;;;;2.08;1.83;;;;;;;;;;6268232;22;20020;-88
2023/12/22 07:24:49;;;;;;;5.70;2.13;;;;;;;;;;6268781;22;20461;-90
2023/12/22 07:27:33;;;;;;;4.15;2.05;;;;;;;;;;6268107;22;20024;-86
2023/12/22 07:30:17;;;;;;;7.22;2.25;;;;;;;;;;6268803;22;20095;-88
2023/12/22 07:33:01;;;;;;;4.90;2.28;;;;;;;;;;6270695;22;20027;-92
2023/12/22 07:35:45;;;;;;;8.45;3.13;;;;;;;;;;6270615;22;20020;-88
2023/12/22 07:38:29;;;;;;;15.02;3.05;;;;;;;;;;6270424;22;20086;-88
2023/12/22 07:41:13;;;;;;;18.92;3.75;;;;;;;;;;6160215;23;20025;-90
2023/12/22 07:43:57;;;;;;;20.17;3.50;;;;;;;;;;6160073;23;20347;-88
2023/12/22 07:46:41;;;;;;;23.75;4.78;;;;;;;;;;6160596;23;20024;-89
2023/12/22 07:49:25;;;;;;;21.42;4.45;;;;;;;;;;6160558;23;20020;-87
2023/12/22 07:52:10;;;;;;;18.98;3.80;;;;;;;;;;6160299;23;20042;-89
2023/12/22 07:54:54;;;;;;;14.55;3.58;;;;;;;;;;6160517;23;20299;-88
2023/12/22 07:57:38;;;;;;;9.23;2.70;;;;;;;;;;6159873;23;20032;-86
2023/12/22 08:00:22;;;;;;;7.32;2.50;;;;;;;;;;6182728;23;20064;-87
2023/12/22 08:06:46;;;;;;;7.60;2.58;;;;;;;;;;6182806;23;20343;-90
2023/12/22 08:09:30;;;;;;;10.50;2.40;;;;;;;;;;6183375;23;20020;-88
2023/12/22 08:12:14;;;;;;;4.07;1.95;;;;;;;;;;6182614;23;20016;-90
2023/12/22 08:14:58;;;;;;;5.43;2.00;;;;;;;;;;6182335;23;20331;-88
2023/12/22 08:17:48;;;;;;;6.85;2.20;;;;;;;;;;6160151;23;20082;-86
2023/12/22 08:24:51;;;;;;;;;;;;;;;;;;;;;
2023/12/22 08:42:22;;;;;;;7.25;2.55;;;;;;;;;;6193128;23;20070;-89
2023/12/22 08:48:59;;;;;;;9.63;3.42;;;;;;;;;;6188805;23;20079;-87
2023/12/22 08:51:43;;;;;;;15.73;3.40;;;;;;;;;;6181341;23;20498;-87
2023/12/22 08:54:27;;;;;;;15.15;3.40;;;;;;;;;;6178437;23;20759;-88
2023/12/22 08:57:11;;;;;;;15.43;3.47;;;;;;;;;;6156340;23;20510;-87
2023/12/22 08:59:55;;;;;;;13.90;3.15;;;;;;;;;;6156648;23;20056;-88
2023/12/22 09:02:41;;;;;;;14.82;3.92;;;;;;;;;;6166782;23;20062;-89
2023/12/22 09:05:25;;;;;;;8.40;3.30;;;;;;;;;;6163480;22;20024;-90
2023/12/22 09:08:09;;;;;;;7.13;2.70;;;;;;;;;;6156627;23;20055;-89
2023/12/22 09:10:54;;;;;;;12.73;3.50;;;;;;;;;;6156923;23;20504;-88
2023/12/22 09:13:38;;;;;;;6.40;2.05;;;;;;;;;;6155869;23;20016;-89
2023/12/22 09:16:24;;;;;;;9.57;2.67;;;;;;;;;;6163494;23;20096;-91
2023/12/22 09:19:09;;;;;;;10.88;2.55;;;;;;;;;;6165195;23;20031;-91
2023/12/22 09:21:53;;;;;;;12.20;2.80;;;;;;;;;;6163024;23;20020;-89
2023/12/22 09:28:07;;;;;;;10.88;3.08;;;;;;;;;;6201872;23;20020;-89
2023/12/22 09:34:28;;;;;;;21.60;3.53;;;;;;;;;;6192881;23;20008;-90
2023/12/22 09:37:16;;;;;;;11.57;3.08;;;;;;;;;;6172222;23;20393;-90
2023/12/22 10:02:23;;;;;;;18.60;4.33;;;;;;;;;;6121344;22;20441;-89
2023/12/22 10:08:43;;;;;;;9.75;3.38;;;;;;;;;;6307663;22;20020;-89
2023/12/22 10:14:56;;;;;;;11.23;2.95;;;;;;;;;;6309460;22;20060;-90
2023/12/22 10:21:09;;;;;;;11.10;2.95;;;;;;;;;;6316552;22;20014;-88
2023/12/22 10:23:53;;;;;;;9.38;2.95;;;;;;;;;;6286014;22;20391;-89
2023/12/22 10:30:22;;;;;;;15.27;2.65;;;;;;;;;;6309752;22;20061;-88
2023/12/22 10:33:07;;;;;;;11.82;3.15;;;;;;;;;;6287027;22;20334;-89
2023/12/22 10:35:53;;;;;;;12.80;2.97;;;;;;;;;;6291459;22;20464;-89
2023/12/22 10:38:37;;;;;;;10.30;3.33;;;;;;;;;;6290623;22;20014;-87
2023/12/22 10:59:04;;;;;;;15.43;3.35;;;;;;;;;;6190339;23;20080;-90
2023/12/22 11:18:34;;;;;;;9.73;3.28;;;;;;;;;;6281880;22;20030;-91
2023/12/22 11:26:57;;;;;;;14.68;3.60;;;;;;;;;;6191391;22;20165;-87
2023/12/22 11:41:56;;;;;;;17.23;3.38;;;;;;;;;;6292679;22;20023;-90
2023/12/22 12:02:28;;;;;;;16.92;3.70;;;;;;;;;;6214284;22;20023;-90
2023/12/22 12:27:32;;;;;;;14.85;3.63;;;;;;;;;;6314903;22;20100;-89
2023/12/22 12:49:14;;;;;;;11.02;3.03;;;;;;;;;;6321936;22;20014;-89
2023/12/22 13:41:48;;;;;;;12.82;4.25;;;;;;;;;;6119940;23;20604;-89
2023/12/22 13:44:32;;;;;;;12.65;4.13;;;;;;;;;;6102158;23;20028;-91
2023/12/22 13:54:36;;;;;;;14.98;4.40;;;;;;;;;;6124082;23;20017;-89
2023/12/22 14:00:52;;;;;;;21.27;6.53;;;;;;;;;;6123307;23;20104;-88
2023/12/22 14:03:44;;;;;;;19.30;4.90;;;;;;;;;;6101276;23;20067;-88
2023/12/22 14:06:29;;;;;;;9.73;4.15;;;;;;;;;;6122168;23;20133;-87
2023/12/22 14:12:54;;;;;;;12.13;4.50;;;;;;;;;;6122652;23;20017;-88
2023/12/22 14:15:43;;;;;;;9.55;5.13;;;;;;;;;;6121680;23;20021;-88
2023/12/22 14:18:28;;;;;;;9.75;4.47;;;;;;;;;;6121101;23;20511;-87
2023/12/22 14:28:51;;;;;;;8.25;4.00;;;;;;;;;;6124505;23;20098;-89
2023/12/22 14:31:44;;;;;;;17.52;4.25;;;;;;;;;;6102170;23;20025;-89
2023/12/22 14:34:38;;;;;;;21.83;4.45;;;;;;;;;;6122767;23;20021;-88
2023/12/22 14:37:25;;;;;;;;;;;;;;;;;;6122695;23;20020;-90
2023/12/22 14:40:30;;;;;;;13.10;4.07;;;;;;;;;;6122259;23;19912;-88
2023/12/22 14:43:20;;;;;;;11.15;3.50;;;;;;;;;;6122628;23;20025;-88
2023/12/22 14:46:22;;;;;;;8.35;3.20;;;;;;;;;;6122799;23;20047;-89
2023/12/22 15:00:39;;;;;;;;;;;;;;;;;;;;;
2023/12/22 15:07:24;;;;;;;17.20;3.95;;;;;;;;;;6036027;23;20077;-88
2023/12/22 15:10:09;;;;;;;17.95;4.72;;;;;;;;;;6064460;23;20021;-88
2023/12/22 15:12:53;;;;;;;11.40;3.55;;;;;;;;;;6101160;23;20072;-89
2023/12/22 15:15:37;;;;;;;12.15;3.88;;;;;;;;;;6101313;23;20053;-89
2023/12/22 15:18:21;;;;;;;14.25;3.63;;;;;;;;;;6101052;23;20017;-88
2023/12/22 15:21:04;;;;;;;15.63;3.75;;;;;;;;;;6100459;23;20025;-87
2023/12/22 15:23:48;;;;;;;16.00;4.35;;;;;;;;;;6099729;23;20072;-90
2023/12/22 15:27:05;;;;;;;15.85;3.85;;;;;;;;;;6123038;23;20029;-88
2023/12/22 15:29:58;;;;;;;12.35;4.15;;;;;;;;;;6100039;23;20024;-88
2023/12/22 15:32:42;;;;;;;15.83;4.63;;;;;;;;;;6121338;23;20021;-88
2023/12/22 15:35:26;;;;;;;12.38;3.85;;;;;;;;;;6101072;23;20840;-88
2023/12/22 15:42:15;;;;;;;13.43;3.63;;;;;;;;;;6123609;23;20012;-89
2023/12/22 15:44:59;;;;;;;11.02;3.47;;;;;;;;;;6073144;23;20068;-89
2023/12/22 15:47:43;;;;;;;14.93;4.53;;;;;;;;;;6071417;23;20034;-88
2023/12/22 15:50:27;;;;;;;15.30;4.20;;;;;;;;;;6070878;23;20380;-87
2023/12/22 15:53:11;;;;;;;18.27;4.50;;;;;;;;;;6070057;23;20026;-85
2023/12/22 15:55:56;;;;;;;12.23;4.43;;;;;;;;;;6092804;23;20068;-89
2023/12/22 15:58:44;;;;;;;16.00;4.10;;;;;;;;;;6072707;23;20129;-89
2023/12/22 16:01:33;;;;;;;17.15;4.40;;;;;;;;;;6074199;23;20069;-89
2023/12/22 16:04:17;;;;;;;15.68;4.32;;;;;;;;;;6073064;23;20041;-90
2023/12/22 16:07:31;;;;;;;14.68;4.30;;;;;;;;;;6072643;23;20112;-90
2023/12/22 16:10:15;;;;;;;15.18;4.63;;;;;;;;;;6073935;23;20045;-90
2023/12/22 16:12:59;;;;;;;17.60;4.32;;;;;;;;;;6074269;23;20463;-88
2023/12/22 16:15:43;;;;;;;17.38;4.47;;;;;;;;;;6073671;23;20058;-91
2023/12/22 16:18:28;;;;;;;19.52;4.82;;;;;;;;;;6074731;23;20041;-90
2023/12/22 16:21:12;;;;;;;14.88;4.30;;;;;;;;;;6074585;23;20064;-88
2023/12/22 16:23:56;;;;;;;20.42;4.95;;;;;;;;;;6073867;23;20094;-90
2023/12/22 16:26:49;;;;;;;20.73;5.57;;;;;;;;;;6074483;23;20022;-88
2023/12/22 16:29:38;;;;;;;14.82;5.38;;;;;;;;;;6074632;23;20029;-90
2023/12/22 16:32:27;;;;;;;20.00;5.82;;;;;;;;;;6074402;23;20021;-91
2023/12/22 16:35:11;;;;;;;18.67;5.40;;;;;;;;;;6072274;23;20375;-89
2023/12/22 16:37:55;;;;;;;20.83;5.57;;;;;;;;;;6090691;23;20387;-89
2023/12/22 16:40:39;;;;;;;13.95;4.80;;;;;;;;;;6069426;23;20356;-88
2023/12/22 16:43:23;;;;;;;19.75;4.40;;;;;;;;;;6104975;23;20352;-87
2023/12/22 16:46:07;;;;;;;16.85;4.18;;;;;;;;;;6097565;23;20025;-88
2023/12/22 16:48:51;;;;;;;10.95;3.67;;;;;;;;;;6097988;23;20036;-87
2023/12/22 16:51:35;;;;;;;17.33;4.13;;;;;;;;;;6097361;23;20083;-88
2023/12/22 16:54:19;;;;;;;14.15;3.70;;;;;;;;;;6097548;23;20497;-88
2023/12/22 16:57:03;;;;;;;14.18;3.97;;;;;;;;;;6098817;23;20345;-87
2023/12/22 16:59:47;;;;;;;11.88;3.35;;;;;;;;;;6117665;23;20040;-86
2023/12/22 17:02:31;;;;;;;12.50;3.15;;;;;;;;;;6097875;23;20071;-89
2023/12/22 17:05:15;;;;;;;18.38;4.50;;;;;;;;;;6097230;23;20097;-87
2023/12/22 17:07:59;;;;;;;18.33;5.28;;;;;;;;;;6097430;23;20024;-89
2023/12/22 17:10:43;;;;;;;14.82;5.07;;;;;;;;;;6120297;23;20021;-87
2023/12/22 17:13:27;;;;;;;17.77;5.25;;;;;;;;;;6118100;23;21154;-89
2023/12/22 17:16:11;;;;;;;17.40;4.78;;;;;;;;;;6097333;23;20021;-88
2023/12/22 17:18:55;;;;;;;12.05;5.57;;;;;;;;;;6097166;23;20024;-88
2023/12/22 17:21:41;;;;;;;19.27;6.45;;;;;;;;;;6119368;23;20025;-88
2023/12/22 17:24:25;;;;;;;15.57;6.43;;;;;;;;;;6097359;23;20024;-86
2023/12/22 17:27:10;;;;;;;17.88;5.05;;;;;;;;;;6117683;23;20056;-86
2023/12/22 17:29:54;;;;;;;17.33;5.35;;;;;;;;;;6119484;23;20107;-87
2023/12/22 17:32:38;;;;;;;11.63;3.33;;;;;;;;;;6097001;23;20021;-87
2023/12/22 17:35:21;;;;;;;11.13;3.70;;;;;;;;;;6118900;23;20025;-88
2023/12/22 17:38:08;;;;;;;13.70;4.75;;;;;;;;;;6119237;23;20021;-88
2023/12/22 17:40:52;;;;;;;15.32;4.28;;;;;;;;;;6097795;23;20025;-88
2023/12/22 17:43:36;;;;;;;11.93;3.90;;;;;;;;;;6119587;23;20076;-87
2023/12/22 17:46:20;;;;;;;7.55;4.00;;;;;;;;;;6097161;23;20506;-87
2023/12/22 17:49:04;;;;;;;11.75;3.92;;;;;;;;;;6119349;23;20068;-87
2023/12/22 17:51:48;;;;;;;15.43;5.07;;;;;;;;;;6119630;23;20025;-87
2023/12/22 17:54:32;;;;;;;7.40;3.78;;;;;;;;;;6119899;23;20102;-88
2023/12/22 17:57:16;;;;;;;13.32;3.88;;;;;;;;;;6119699;23;20388;-88
2023/12/22 17:59:59;;;;;;;11.75;4.38;;;;;;;;;;6118830;23;20522;-87
2023/12/22 18:02:43;;;;;;;13.50;4.97;;;;;;;;;;6097229;23;20052;-90
2023/12/22 18:05:27;;;;;;;33.88;14.18;;;;;;;;;;6119755;23;20525;-86
2023/12/22 18:08:11;;;;;;;21.85;8.40;;;;;;;;;;6119823;23;20101;-88
2023/12/22 18:10:55;;;;;;;21.77;9.05;;;;;;;;;;6118396;23;20339;-87
2023/12/22 18:13:39;;;;;;;13.70;4.55;;;;;;;;;;6118590;23;20017;-81
2023/12/22 18:16:23;;;;;;;32.42;12.77;;;;;;;;;;6096947;23;20143;-81
2023/12/22 18:19:08;;;;;;;17.98;7.35;;;;;;;;;;6119115;23;20017;-83
2023/12/22 18:21:51;;;;;;;14.05;3.80;;;;;;;;;;6097543;23;20029;-83
2023/12/22 18:24:35;;;;;;;9.57;3.20;;;;;;;;;;6097387;23;20502;-82
2023/12/22 18:27:20;;;;;;;12.73;5.03;;;;;;;;;;6117868;23;20021;-83
2023/12/22 18:30:05;;;;;;;12.10;4.75;;;;;;;;;;6119161;23;20353;-83
2023/12/22 18:32:48;;;;;;;8.80;3.60;;;;;;;;;;6117861;23;20017;-82
2023/12/22 18:35:38;;;;;;;8.55;3.72;;;;;;;;;;6119174;23;20028;-83
2023/12/22 18:38:23;;;;;;;6.25;2.72;;;;;;;;;;6097327;23;20068;-82
2023/12/22 18:41:08;;;;;;;6.97;2.47;;;;;;;;;;6097572;23;20029;-83
2023/12/22 18:43:52;;;;;;;7.03;3.15;;;;;;;;;;6097253;23;20037;-82
2023/12/22 18:46:36;;;;;;;4.50;3.05;;;;;;;;;;6117733;23;20105;-83
2023/12/22 18:49:20;;;;;;;7.00;3.00;;;;;;;;;;6097555;23;20471;-82
2023/12/22 18:52:05;;;;;;;5.55;2.72;;;;;;;;;;6097606;23;20095;-82
2023/12/22 18:54:49;;;;;;;9.60;2.95;;;;;;;;;;6097133;23;20092;-83
2023/12/22 18:57:33;;;;;;;11.52;3.13;;;;;;;;;;6097160;23;20029;-82
2023/12/22 19:00:18;;;;;;;11.23;3.95;;;;;;;;;;6097376;23;20510;-83
2023/12/22 19:03:02;;;;;;;24.08;10.02;;;;;;;;;;6117271;23;20099;-83
2023/12/22 19:05:46;;;;;;;6.63;2.85;;;;;;;;;;6097579;23;20434;-83
2023/12/22 19:08:30;;;;;;;9.60;6.07;;;;;;;;;;6119230;23;20033;-83
2023/12/22 19:11:14;;;;;;;8.25;2.72;;;;;;;;;;6119035;23;20021;-82
2023/12/22 19:13:59;;;;;;;9.07;2.72;;;;;;;;;;6097383;23;20033;-83
2023/12/22 19:16:43;;;;;;;6.88;2.35;;;;;;;;;;6118044;23;20064;-83
2023/12/22 19:19:27;;;;;;;7.55;3.25;;;;;;;;;;6117907;23;20036;-83
2023/12/22 19:22:10;;;;;;;6.88;2.55;;;;;;;;;;6119239;23;20491;-83
2023/12/22 19:24:54;;;;;;;9.40;3.22;;;;;;;;;;6097325;23;20083;-82
2023/12/22 19:27:38;;;;;;;6.20;2.75;;;;;;;;;;6118216;23;20021;-82
2023/12/22 19:30:22;;;;;;;8.77;3.00;;;;;;;;;;6098314;23;20028;-82
2023/12/22 19:33:06;;;;;;;4.82;2.88;;;;;;;;;;6098059;23;20554;-83
2023/12/22 19:35:50;;;;;;;9.85;3.05;;;;;;;;;;6098439;23;20463;-84
2023/12/22 19:38:34;;;;;;;13.07;3.00;;;;;;;;;;6119249;23;20022;-82
2023/12/22 19:41:18;;;;;;;7.43;3.70;;;;;;;;;;6098258;23;20479;-83
2023/12/22 19:44:02;;;;;;;13.00;3.70;;;;;;;;;;6098122;23;20084;-82
2023/12/22 19:46:46;;;;;;;13.00;3.83;;;;;;;;;;6098256;23;20522;-82
2023/12/22 19:49:30;;;;;;;9.43;3.47;;;;;;;;;;6097937;23;20092;-84
2023/12/22 19:52:14;;;;;;;12.88;3.67;;;;;;;;;;6098808;23;20091;-82
2023/12/22 19:55:01;;;;;;;17.48;4.18;;;;;;;;;;6118769;23;20017;-82
2023/12/22 19:57:45;;;;;;;18.42;4.45;;;;;;;;;;6119758;23;20379;-83
2023/12/22 20:00:29;;;;;;;16.02;4.32;;;;;;;;;;6118923;23;20063;-85
2023/12/22 20:03:13;;;;;;;17.42;5.20;;;;;;;;;;6097617;23;20025;-85
2023/12/22 20:06:01;;;;;;;22.75;3.72;;;;;;;;;;6097892;23;20020;-85
2023/12/22 20:08:45;;;;;;;15.98;3.78;;;;;;;;;;6097617;23;20079;-85
2023/12/22 20:11:29;;;;;;;14.45;3.35;;;;;;;;;;6120187;23;20029;-88
2023/12/22 20:14:13;;;;;;;14.73;3.90;;;;;;;;;;6120768;23;20416;-87
2023/12/22 20:16:57;;;;;;;12.95;3.60;;;;;;;;;;6096816;23;20399;-86
2023/12/22 20:19:41;;;;;;;10.15;3.33;;;;;;;;;;6097761;23;20093;-87
2023/12/22 20:22:25;;;;;;;12.25;3.50;;;;;;;;;;6098200;23;20483;-86
2023/12/22 20:25:12;;;;;;;15.98;4.07;;;;;;;;;;6123931;23;20099;-90
2023/12/22 20:31:31;;;;;;;14.25;5.35;;;;;;;;;;6122825;23;20052;-88
2023/12/22 20:34:37;;;;;;;11.23;3.83;;;;;;;;;;6101680;23;20080;-88
2023/12/22 20:37:21;;;;;;;11.48;4.43;;;;;;;;;;6101099;23;20098;-87
2023/12/22 20:51:17;;;;;;;9.73;3.95;;;;;;;;;;6121540;23;20294;-88
2023/12/22 20:54:01;;;;;;;16.70;3.92;;;;;;;;;;6121316;23;20093;-88
2023/12/22 20:57:03;;;;;;;13.85;3.60;;;;;;;;;;6121661;23;20020;-85
2023/12/22 21:03:39;;;;;;;5.37;3.20;;;;;;;;;;6121803;23;20802;-85
2023/12/22 21:06:52;;;;;;;10.43;3.75;;;;;;;;;;6120337;23;20069;-87
2023/12/22 21:09:36;;;;;;;18.48;4.60;;;;;;;;;;6122063;23;20526;-86
2023/12/22 21:12:54;;;;;;;13.73;3.50;;;;;;;;;;6121228;23;20399;-88
2023/12/22 21:16:07;;;;;;;10.98;3.50;;;;;;;;;;6101184;23;20020;-89
2023/12/22 21:26:04;;;;;;;12.93;3.60;;;;;;;;;;6125211;23;20017;-87
2023/12/22 21:43:45;;;;;;;19.67;4.55;;;;;;;;;;6121958;23;21038;-87
2023/12/22 21:53:43;;;;;;;14.82;4.65;;;;;;;;;;6123588;23;20096;-90
2023/12/22 22:07:22;;;;;;;14.07;3.95;;;;;;;;;;6213152;23;20026;-89
2023/12/22 22:10:19;;;;;;;21.02;4.95;;;;;;;;;;6190930;23;20761;-87